Serov, Russia
Current Conditions -  °F | °C
As of 10:00 PM on Sunday 23 Nov 2014 (Local Time) from USPP Reporting Station
Clear Clear  
Wind Chill: -10°   Ceiling: Unl
Heat Index:   Visibility: 6mi
Dew Point: -6°   Wind: 4mph
Humidity: 78%   Direction: 360°N
Pressure: 30.62"   Gusts: NA
Location:  59.61°N, 60.58°E
Report Text: USPP 231700Z 36002MPS CAVOK M18/M21 Q1037 03820255 NOSIG RMKQFE767/1023
Loading
Personal Weather Stations






























Interactive Weather Map New forecast layout! Learn more

10-Day Weather Forecast

Advertisements
Track Severe Weather on mobile